Mitra — PBZW — position and weather

sailwx.info

Track history (hours):
 
Tides and Currents Weather Stations Pressure Air Temp Water Temp Dewpoint Dewpoint Depression Visibility Wind Speed Wind Dir Waves Ship Positions

Oceanographic research ship Mitra (Netherlands)

Detailed information on ship capabilities available from University of Delaware's Ocean Information Center.

Last reported at 2017-Aug-17 11:40 UTC. Time now 2017-Aug-20 03:44 UTC.
Position N 51°56' E 004°12'.

Length 223 m; draft 10.4 m.

Type: Ship (hazmat cat A). MMSI: 244670078.

Date/timePositionNaut miles runAvg speedWind from/ knotsBaromVisibWave heightAir tempDewpointWater temp
2017-Aug-17 11:40N 51°56' E 004°12'0 0.0
2017-Aug-17 11:30N 51°56' E 004°12'  
2017-Aug-09 03:14S 26°28' W 047°10'414.0
2017-Aug-09 02:57S 26°24' W 047°09'613.9
2017-Aug-09 02:29S 26°18' W 047°08'713.8
2017-Aug-09 01:59S 26°11' W 047°06'713.8
2017-Aug-09 01:30S 26°05' W 047°05'713.4
2017-Aug-09 01:00S 25°58' W 047°03'713.3
2017-Aug-09 00:30S 25°52' W 047°01'713.0
2017-Aug-08 23:58S 25°45' W 046°59'2312.2
2017-Aug-08 22:06S 25°24' W 046°49'112.8
2017-Aug-08 22:00S 25°23' W 046°48'813.7
2017-Aug-08 21:27S 25°16' W 046°45'613.8
2017-Aug-08 21:00S 25°10' W 046°43'813.8
2017-Aug-08 20:26S 25°03' W 046°40'613.8
2017-Aug-08 20:00S 24°57' W 046°38'713.8
2017-Aug-08 19:28S 24°50' W 046°36'613.9
2017-Aug-08 19:00S 24°44' W 046°33'713.9
2017-Aug-08 18:30S 24°37' W 046°31'713.6
2017-Aug-08 18:00S 24°31' W 046°30'713.5
2017-Aug-08 17:30S 24°24' W 046°30'713.2
2017-Aug-08 17:00S 24°17' W 046°28'713.7
2017-Aug-08 16:30S 24°11' W 046°25'713.8
2017-Aug-08 16:00S 24°05' W 046°22'510.5
2017-Aug-08 15:30S 23°60' W 046°20'3 4.8
2017-Aug-08 14:55S 23°58' W 046°18'0 0.0
2017-Aug-07 18:10S 23°58' W 046°18'0 1.7
2017-Aug-07 17:59S 23°58' W 046°18'3 5.6
2017-Aug-07 17:31S 23°60' W 046°20'4 8.6
2017-Aug-07 17:00S 24°04' W 046°22'4 7.4
2017-Aug-07 16:30S 24°07' W 046°21'1 1.2
2017-Aug-07 15:53S 24°08' W 046°21'0 0.0
2017-Aug-07 15:29S 24°08' W 046°21'0 0.0
2017-Aug-07 14:59S 24°08' W 046°21'0 0.0
2017-Aug-07 14:23S 24°08' W 046°21'0 0.1
2017-Aug-07 13:59S 24°08' W 046°21'0 0.0
2017-Aug-07 13:29S 24°08' W 046°21'0 0.0
2017-Aug-07 12:59S 24°08' W 046°21'0 0.0
2017-Aug-07 12:29S 24°08' W 046°21'0 0.0
2017-Aug-07 11:56S 24°08' W 046°21'  
Track history (hours):
 
Tides and Currents Weather Stations Pressure Air Temp Water Temp Dewpoint Dewpoint Depression Visibility Wind Speed Wind Dir Waves Ship Positions

Oceanographic research ship Mitra (Netherlands)

Detailed information on ship capabilities available from University of Delaware's Ocean Information Center.

Last reported at 2017-Aug-17 11:40 UTC. Time now 2017-Aug-20 03:44 UTC.
Position N 51°56' E 004°12'.

Length 223 m; draft 10.4 m.

Type: Ship (hazmat cat A). MMSI: 244670078.

Date/timePositionNaut miles runAvg speedWind from/ knotsBaromVisibWave heightAir tempDewpointWater temp
2017-Aug-17 11:40N 51°56' E 004°12'0 0.0
2017-Aug-17 11:30N 51°56' E 004°12'  
2017-Aug-09 03:14S 26°28' W 047°10'414.0
2017-Aug-09 02:57S 26°24' W 047°09'613.9
2017-Aug-09 02:29S 26°18' W 047°08'713.8
2017-Aug-09 01:59S 26°11' W 047°06'713.8
2017-Aug-09 01:30S 26°05' W 047°05'713.4
2017-Aug-09 01:00S 25°58' W 047°03'713.3
2017-Aug-09 00:30S 25°52' W 047°01'713.0
2017-Aug-08 23:58S 25°45' W 046°59'2312.2
2017-Aug-08 22:06S 25°24' W 046°49'112.8
2017-Aug-08 22:00S 25°23' W 046°48'813.7
2017-Aug-08 21:27S 25°16' W 046°45'613.8
2017-Aug-08 21:00S 25°10' W 046°43'813.8
2017-Aug-08 20:26S 25°03' W 046°40'613.8
2017-Aug-08 20:00S 24°57' W 046°38'713.8
2017-Aug-08 19:28S 24°50' W 046°36'613.9
2017-Aug-08 19:00S 24°44' W 046°33'713.9
2017-Aug-08 18:30S 24°37' W 046°31'713.6
2017-Aug-08 18:00S 24°31' W 046°30'713.5
2017-Aug-08 17:30S 24°24' W 046°30'713.2
2017-Aug-08 17:00S 24°17' W 046°28'713.7
2017-Aug-08 16:30S 24°11' W 046°25'713.8
2017-Aug-08 16:00S 24°05' W 046°22'510.5
2017-Aug-08 15:30S 23°60' W 046°20'3 4.8
2017-Aug-08 14:55S 23°58' W 046°18'0 0.0
2017-Aug-07 18:10S 23°58' W 046°18'0 1.7
2017-Aug-07 17:59S 23°58' W 046°18'3 5.6
2017-Aug-07 17:31S 23°60' W 046°20'4 8.6
2017-Aug-07 17:00S 24°04' W 046°22'4 7.4
2017-Aug-07 16:30S 24°07' W 046°21'1 1.2
2017-Aug-07 15:53S 24°08' W 046°21'0 0.0
2017-Aug-07 15:29S 24°08' W 046°21'0 0.0
2017-Aug-07 14:59S 24°08' W 046°21'0 0.0
2017-Aug-07 14:23S 24°08' W 046°21'0 0.1
2017-Aug-07 13:59S 24°08' W 046°21'0 0.0
2017-Aug-07 13:29S 24°08' W 046°21'0 0.0
2017-Aug-07 12:59S 24°08' W 046°21'0 0.0
2017-Aug-07 12:29S 24°08' W 046°21'0 0.0
2017-Aug-07 11:56S 24°08' W 046°21'  

Dump ship's entire track history